createdAt,value
2023-03-18T00:01:39.704Z,2.00
2023-03-18T00:04:07.839Z,1.93
2023-03-18T00:06:38.262Z,2.00
2023-03-18T00:09:06.971Z,1.93
2023-03-18T00:11:36.411Z,2.63
2023-03-18T00:14:04.472Z,2.10
2023-03-18T00:16:32.254Z,2.20
2023-03-18T00:19:00.140Z,2.10
2023-03-18T00:21:28.191Z,2.60
2023-03-18T00:23:56.848Z,2.60
2023-03-18T00:26:25.013Z,2.90
2023-03-18T00:28:56.122Z,2.77
2023-03-18T00:31:24.222Z,2.03
2023-03-18T00:33:52.938Z,2.33
2023-03-18T00:36:25.641Z,2.37
2023-03-18T00:38:57.528Z,1.97
2023-03-18T00:41:26.623Z,1.90
2023-03-18T00:43:56.626Z,2.13
2023-03-18T00:46:26.500Z,1.80
2023-03-18T00:48:56.237Z,2.33
2023-03-18T00:51:25.984Z,2.30
2023-03-18T00:53:55.569Z,2.50
2023-03-18T00:56:25.586Z,2.43
2023-03-18T00:58:55.379Z,2.40
2023-03-18T01:01:24.213Z,2.73
2023-03-18T01:03:52.210Z,3.13
2023-03-18T01:06:24.429Z,1.97
2023-03-18T01:08:52.805Z,1.83
2023-03-18T01:11:20.564Z,2.17
2023-03-18T01:13:48.872Z,1.60
2023-03-18T01:16:19.191Z,1.57
2023-03-18T01:18:47.390Z,1.77
2023-03-18T01:21:17.176Z,1.80
2023-03-18T01:23:46.996Z,1.30
2023-03-18T01:26:15.118Z,1.83
2023-03-18T01:28:43.361Z,1.40
2023-03-18T01:31:12.707Z,1.47
2023-03-18T01:33:42.579Z,1.80
2023-03-18T01:36:11.518Z,1.40
2023-03-18T01:38:40.774Z,1.50
2023-03-18T01:41:09.938Z,1.67
2023-03-18T01:43:40.649Z,1.63
2023-03-18T01:46:36.640Z,1.90
2023-03-18T01:49:12.645Z,1.57
2023-03-18T01:51:43.150Z,1.80
2023-03-18T01:54:14.204Z,2.00
2023-03-18T01:56:44.142Z,1.77
2023-03-18T01:59:12.344Z,1.67
2023-03-18T02:01:45.111Z,1.40
2023-03-18T02:06:42.362Z,1.50
2023-03-18T02:09:11.168Z,1.70
2023-03-18T02:11:40.786Z,1.57
2023-03-18T02:14:11.867Z,1.23
2023-03-18T02:16:48.683Z,1.40
2023-03-18T02:19:29.919Z,1.23
2023-03-18T02:22:10.894Z,1.57
2023-03-18T02:24:46.990Z,1.50
2023-03-18T02:27:19.179Z,1.43
2023-03-18T02:29:47.870Z,1.50
2023-03-18T02:32:17.321Z,1.40
2023-03-18T02:34:46.476Z,1.63
2023-03-18T02:37:14.213Z,1.53
2023-03-18T02:39:42.231Z,1.93
2023-03-18T02:42:13.057Z,1.30
2023-03-18T02:44:46.890Z,1.27
2023-03-18T02:47:18.161Z,1.57
2023-03-18T02:49:46.163Z,1.70
2023-03-18T02:52:13.984Z,1.80
2023-03-18T02:54:41.988Z,1.20
2023-03-18T02:57:09.860Z,1.23
2023-03-18T02:59:37.607Z,1.53
2023-03-18T03:02:07.166Z,1.30
2023-03-18T03:04:34.959Z,1.43
2023-03-18T03:07:02.736Z,1.77
2023-03-18T03:09:31.076Z,1.20
2023-03-18T03:11:58.819Z,1.60
2023-03-18T03:14:26.580Z,2.10
2023-03-18T03:16:54.365Z,1.50
2023-03-18T03:19:23.708Z,1.90
2023-03-18T03:21:51.382Z,1.50
2023-03-18T03:24:19.124Z,1.50
2023-03-18T03:26:46.814Z,1.50
2023-03-18T03:29:14.446Z,1.43
2023-03-18T03:31:42.186Z,1.30
2023-03-18T03:34:10.756Z,1.83
2023-03-18T03:36:40.002Z,1.50
2023-03-18T03:39:07.889Z,1.53
2023-03-18T03:41:35.688Z,1.50
2023-03-18T03:44:03.400Z,1.50
2023-03-18T03:46:31.304Z,1.40
2023-03-18T03:48:59.037Z,1.70
2023-03-18T03:51:26.687Z,1.50
2023-03-18T03:53:56.075Z,1.37
2023-03-18T03:56:23.774Z,1.47
2023-03-18T03:58:51.667Z,1.57
2023-03-18T04:01:19.316Z,1.57
2023-03-18T04:03:47.241Z,1.57
2023-03-18T04:06:15.405Z,1.30
2023-03-18T04:08:43.175Z,1.50
2023-03-18T04:11:12.856Z,1.50
2023-03-18T04:13:41.073Z,1.40
2023-03-18T04:16:09.684Z,1.50
2023-03-18T04:18:37.403Z,1.70
2023-03-18T04:21:05.908Z,1.70
2023-03-18T04:23:33.857Z,1.57
2023-03-18T04:26:01.677Z,2.00
2023-03-18T04:28:30.640Z,1.60
2023-03-18T04:30:58.547Z,1.43
2023-03-18T04:33:26.348Z,1.50
2023-03-18T04:35:54.048Z,1.90
2023-03-18T04:38:21.879Z,1.60
2023-03-18T04:40:49.576Z,1.50
2023-03-18T04:43:17.407Z,1.07
2023-03-18T04:45:46.564Z,1.33
2023-03-18T04:48:14.264Z,1.30
2023-03-18T04:50:42.122Z,1.40
2023-03-18T04:53:10.011Z,1.10
2023-03-18T04:55:37.797Z,1.40
2023-03-18T04:58:05.752Z,1.33
2023-03-18T05:00:33.867Z,2.13
2023-03-18T05:03:03.418Z,1.57
2023-03-18T05:05:31.685Z,2.00
2023-03-18T05:08:00.146Z,1.73
2023-03-18T05:10:27.956Z,1.73
2023-03-18T05:12:55.791Z,1.90
2023-03-18T05:15:23.519Z,1.50
2023-03-18T05:17:51.537Z,1.57
2023-03-18T05:20:20.808Z,1.70
2023-03-18T05:22:48.562Z,1.90
2023-03-18T05:25:16.390Z,1.60
2023-03-18T05:27:44.146Z,1.77
2023-03-18T05:30:13.032Z,1.80
2023-03-18T05:32:41.501Z,1.80
2023-03-18T05:35:10.496Z,1.70
2023-03-18T05:37:40.191Z,1.63
2023-03-18T05:40:11.691Z,1.80
2023-03-18T05:42:55.050Z,1.50
2023-03-18T05:45:23.438Z,1.80
2023-03-18T05:47:51.845Z,1.93
2023-03-18T05:50:31.852Z,1.77
2023-03-18T05:53:01.038Z,2.00
2023-03-18T05:55:29.606Z,1.90
2023-03-18T05:57:59.070Z,2.00
2023-03-18T06:00:28.667Z,1.70
2023-03-18T06:02:56.781Z,1.73
2023-03-18T06:05:24.679Z,1.77
2023-03-18T06:07:53.982Z,1.90
2023-03-18T06:10:25.145Z,1.70
2023-03-18T06:12:54.877Z,2.17
2023-03-18T06:15:22.997Z,1.47
2023-03-18T06:17:52.758Z,2.00
2023-03-18T06:20:20.730Z,2.10
2023-03-18T06:22:50.221Z,1.53
2023-03-18T06:25:20.452Z,1.70
2023-03-18T06:27:49.962Z,1.87
2023-03-18T06:30:23.194Z,1.50
2023-03-18T06:32:53.424Z,2.25
2023-03-18T06:35:21.857Z,2.33
2023-03-18T06:37:50.434Z,2.13
2023-03-18T06:40:18.400Z,1.88
2023-03-18T06:42:46.620Z,1.48
2023-03-18T06:45:16.986Z,1.80
2023-03-18T06:47:45.003Z,2.03
2023-03-18T06:50:15.512Z,2.10
2023-03-18T06:52:43.501Z,1.50
2023-03-18T06:55:11.807Z,1.90
2023-03-18T06:57:40.432Z,2.15
2023-03-18T07:00:10.447Z,1.92
2023-03-18T07:02:39.937Z,2.33
2023-03-18T07:05:08.873Z,2.80
2023-03-18T07:07:37.629Z,3.10
2023-03-18T07:10:06.784Z,2.20
2023-03-18T07:12:34.580Z,2.30
2023-03-18T07:15:02.460Z,2.40
2023-03-18T07:17:30.895Z,2.53
2023-03-18T07:20:00.069Z,2.20
2023-03-18T07:22:27.778Z,2.10
2023-03-18T07:24:55.525Z,2.53
2023-03-18T07:27:23.454Z,2.63
2023-03-18T07:29:52.429Z,1.77
2023-03-18T07:32:20.222Z,2.13
2023-03-18T07:34:48.890Z,1.63
2023-03-18T07:37:18.054Z,1.80
2023-03-18T07:39:45.801Z,3.00
2023-03-18T07:42:13.748Z,2.00
2023-03-18T07:44:41.457Z,1.50
2023-03-18T07:47:09.246Z,1.60
2023-03-18T07:49:36.917Z,1.40
2023-03-18T07:52:04.927Z,1.40
2023-03-18T07:54:34.273Z,1.63
2023-03-18T07:57:03.926Z,1.80
2023-03-18T07:59:35.777Z,1.53
2023-03-18T08:02:04.828Z,2.00
2023-03-18T08:04:32.741Z,1.30
2023-03-18T08:07:01.303Z,1.43
2023-03-18T08:09:29.099Z,1.20
2023-03-18T08:11:58.264Z,1.60
2023-03-18T08:14:26.024Z,1.60
2023-03-18T08:16:53.812Z,1.50
2023-03-18T08:19:21.654Z,1.40
2023-03-18T08:21:49.536Z,1.53
2023-03-18T08:24:17.358Z,1.60
2023-03-18T08:26:45.304Z,2.10
2023-03-18T08:29:14.676Z,1.53
2023-03-18T08:31:42.924Z,1.47
2023-03-18T08:34:10.738Z,1.37
2023-03-18T08:36:38.739Z,1.40
2023-03-18T08:39:06.568Z,1.40
2023-03-18T08:41:34.551Z,1.37
2023-03-18T08:44:03.005Z,1.90
2023-03-18T08:46:32.416Z,1.67
2023-03-18T08:49:00.908Z,1.50
2023-03-18T08:51:29.166Z,1.63
2023-03-18T08:53:57.846Z,1.50
2023-03-18T08:56:26.444Z,1.40
2023-03-18T08:58:54.809Z,1.40
2023-03-18T09:01:22.890Z,1.40
2023-03-18T09:03:52.839Z,1.50
2023-03-18T09:06:21.006Z,1.30
2023-03-18T09:08:48.746Z,1.80
2023-03-18T09:11:16.484Z,1.50
2023-03-18T09:13:44.170Z,1.60
2023-03-18T09:16:12.752Z,2.23
2023-03-18T09:18:43.548Z,1.97
2023-03-18T09:21:13.952Z,1.87
2023-03-18T09:23:41.677Z,1.33
2023-03-18T09:26:09.701Z,1.33
2023-03-18T09:28:37.557Z,1.47
2023-03-18T09:31:06.113Z,1.10
2023-03-18T09:33:36.948Z,1.50
2023-03-18T09:36:05.358Z,1.20
2023-03-18T09:38:34.655Z,1.47
2023-03-18T09:41:08.609Z,1.27
2023-03-18T09:43:57.279Z,1.47
2023-03-18T09:46:33.771Z,1.50
2023-03-18T09:49:29.478Z,1.20
2023-03-18T09:52:07.244Z,1.60
2023-03-18T09:54:41.407Z,1.50
2023-03-18T09:57:18.966Z,0.93
2023-03-18T09:59:51.734Z,1.20
2023-03-18T10:02:24.874Z,1.30
2023-03-18T10:04:57.505Z,1.03
2023-03-18T10:07:32.957Z,1.40
2023-03-18T10:10:07.127Z,1.60
2023-03-18T10:12:37.266Z,1.67
2023-03-18T10:15:18.495Z,1.40
2023-03-18T10:17:52.518Z,1.10
2023-03-18T10:20:29.135Z,1.23
2023-03-18T10:23:06.063Z,1.20
2023-03-18T10:25:39.310Z,1.20
2023-03-18T10:28:34.670Z,1.20
2023-03-18T10:31:12.382Z,1.40
2023-03-18T10:33:48.157Z,1.40
2023-03-18T10:36:20.811Z,1.57
2023-03-18T10:38:52.215Z,1.80
2023-03-18T10:41:28.734Z,2.00
2023-03-18T10:43:58.387Z,1.47
2023-03-18T10:46:28.417Z,1.33
2023-03-18T10:49:00.932Z,1.50
2023-03-18T10:51:35.933Z,1.57
2023-03-18T10:54:10.670Z,1.70
2023-03-18T10:56:39.909Z,1.50
2023-03-18T10:59:13.015Z,1.53
2023-03-18T11:01:42.705Z,1.67
2023-03-18T11:04:16.461Z,1.40
2023-03-18T11:06:48.425Z,1.57
2023-03-18T11:09:23.695Z,1.30
2023-03-18T11:12:21.794Z,1.57
2023-03-18T11:14:54.103Z,1.43
2023-03-18T11:17:24.228Z,1.20
2023-03-18T11:20:02.992Z,1.73
2023-03-18T11:22:32.337Z,1.70
2023-03-18T11:25:08.140Z,1.77
2023-03-18T11:27:40.277Z,1.93
2023-03-18T11:30:34.067Z,1.53
2023-03-18T11:33:16.847Z,1.23
2023-03-18T11:35:48.583Z,1.20
2023-03-18T11:38:40.293Z,1.43
2023-03-18T11:41:09.841Z,1.60
2023-03-18T11:43:39.234Z,1.47
2023-03-18T11:46:11.933Z,1.33
2023-03-18T11:48:42.317Z,1.13
2023-03-18T11:51:44.590Z,1.73
2023-03-18T11:54:39.651Z,1.00
2023-03-18T11:57:22.415Z,1.20
2023-03-18T12:00:00.545Z,1.00
2023-03-18T12:03:04.494Z,2.53
2023-03-18T12:05:54.576Z,2.00
2023-03-18T12:08:34.452Z,1.23
2023-03-18T12:11:12.641Z,1.60
2023-03-18T12:13:53.800Z,1.60
2023-03-18T12:16:33.604Z,1.80
2023-03-18T12:19:15.159Z,1.00
2023-03-18T12:21:58.627Z,1.47
2023-03-18T12:24:42.928Z,1.10
2023-03-18T12:27:21.321Z,1.50
2023-03-18T12:30:19.508Z,1.67
2023-03-18T12:32:56.294Z,1.40
2023-03-18T12:35:41.904Z,1.30
2023-03-18T12:38:34.020Z,2.47
2023-03-18T12:41:09.976Z,1.73
2023-03-18T12:43:52.788Z,1.50
2023-03-18T12:46:29.457Z,1.60
2023-03-18T12:49:04.637Z,1.40
2023-03-18T12:51:42.833Z,1.40
2023-03-18T12:54:20.839Z,0.83
2023-03-18T12:56:55.711Z,1.17
2023-03-18T12:59:29.028Z,1.53
2023-03-18T13:02:11.373Z,1.40
2023-03-18T13:04:46.709Z,2.57
2023-03-18T13:07:25.666Z,2.30
2023-03-18T13:09:59.608Z,1.47
2023-03-18T13:12:33.649Z,1.70
2023-03-18T13:15:03.437Z,1.60
2023-03-18T13:17:34.236Z,1.77
2023-03-18T13:20:04.599Z,1.20
2023-03-18T13:23:06.376Z,1.50
2023-03-18T13:25:42.059Z,1.40
2023-03-18T13:28:28.180Z,1.37
2023-03-18T13:31:09.440Z,1.20
2023-03-18T13:34:05.012Z,1.23
2023-03-18T13:37:14.432Z,1.60
2023-03-18T13:40:19.499Z,1.10
2023-03-18T13:42:50.869Z,1.00
2023-03-18T13:45:28.248Z,1.00
2023-03-18T13:47:59.383Z,1.20
2023-03-18T13:50:39.632Z,1.20
2023-03-18T13:53:21.874Z,1.90
2023-03-18T13:56:01.224Z,1.60
2023-03-18T13:58:31.049Z,1.67
2023-03-18T14:01:33.206Z,1.93
2023-03-18T14:04:22.519Z,1.97
2023-03-18T14:06:55.728Z,1.20
2023-03-18T14:09:35.412Z,1.20
2023-03-18T14:12:21.975Z,1.30
2023-03-18T14:15:05.832Z,1.20
2023-03-18T14:17:45.912Z,1.40
2023-03-18T14:20:26.282Z,1.50
2023-03-18T14:22:56.157Z,1.33
2023-03-18T14:25:40.919Z,1.87
2023-03-18T14:28:24.913Z,1.93
2023-03-18T14:31:21.003Z,1.67
2023-03-18T14:33:53.902Z,1.60
2023-03-18T14:36:40.864Z,1.50
2023-03-18T14:39:14.434Z,1.40
2023-03-18T14:41:52.730Z,1.77
2023-03-18T14:44:29.084Z,1.40
2023-03-18T14:47:00.182Z,1.40
2023-03-18T14:49:38.288Z,1.60
2023-03-18T14:52:14.640Z,1.60
2023-03-18T14:54:46.092Z,1.33
2023-03-18T14:57:14.112Z,1.83
2023-03-18T14:59:43.233Z,2.43
2023-03-18T15:02:24.102Z,1.97
2023-03-18T15:04:55.382Z,1.90
2023-03-18T15:07:36.822Z,2.23
2023-03-18T15:10:10.669Z,1.30
2023-03-18T15:12:38.937Z,2.00
2023-03-18T15:15:16.221Z,1.80
2023-03-18T15:17:47.651Z,1.67
2023-03-18T15:20:17.235Z,1.57
2023-03-18T15:22:45.454Z,1.40
2023-03-18T15:25:19.319Z,1.40
2023-03-18T15:27:48.234Z,1.40
2023-03-18T15:30:28.484Z,1.57
2023-03-18T15:33:04.547Z,1.90
2023-03-18T15:35:32.910Z,3.10
2023-03-18T15:38:08.847Z,3.27
2023-03-18T15:40:38.088Z,2.60
2023-03-18T15:43:17.217Z,2.13
2023-03-18T15:45:53.237Z,2.27
2023-03-18T15:48:25.503Z,3.47
2023-03-18T15:50:55.735Z,2.37
2023-03-18T15:53:23.830Z,2.37
2023-03-18T15:55:53.865Z,2.03
2023-03-18T15:58:27.714Z,2.27
2023-03-18T16:00:58.254Z,2.53
2023-03-18T16:03:29.310Z,2.93
2023-03-18T16:05:58.123Z,3.63
2023-03-18T16:08:26.271Z,2.63
2023-03-18T16:10:56.675Z,3.80
2023-03-18T16:13:26.917Z,3.00
2023-03-18T16:15:56.308Z,3.20
2023-03-18T16:18:24.481Z,2.60
2023-03-18T16:20:54.208Z,2.70
2023-03-18T16:23:22.521Z,2.70
2023-03-18T16:25:52.730Z,3.50
2023-03-18T16:28:33.201Z,3.00
2023-03-18T16:31:02.246Z,2.90
2023-03-18T16:33:30.615Z,2.70
2023-03-18T16:36:00.422Z,2.50
2023-03-18T16:38:29.973Z,2.43
2023-03-18T16:40:58.475Z,2.23
2023-03-18T16:43:28.242Z,2.37
2023-03-18T16:46:00.431Z,2.60
2023-03-18T16:48:29.988Z,2.80
2023-03-18T16:51:02.330Z,2.53
2023-03-18T16:53:31.613Z,2.60
2023-03-18T16:56:02.409Z,2.00
2023-03-18T16:58:33.665Z,2.00
2023-03-18T17:01:01.630Z,2.43
2023-03-18T17:03:31.650Z,2.43
2023-03-18T17:06:03.523Z,2.20
2023-03-18T17:08:31.304Z,2.80
2023-03-18T17:11:02.953Z,2.40
2023-03-18T17:13:33.850Z,2.03
2023-03-18T17:16:01.977Z,1.90
2023-03-18T17:18:31.597Z,4.73
2023-03-18T17:20:59.530Z,2.37
2023-03-18T17:23:29.311Z,3.10
2023-03-18T17:25:59.660Z,2.33
2023-03-18T17:28:34.574Z,2.23
2023-03-18T17:31:03.299Z,2.70
2023-03-18T17:33:34.724Z,2.90
2023-03-18T17:36:02.754Z,2.60
2023-03-18T17:38:32.310Z,2.77
2023-03-18T17:41:00.929Z,2.67
2023-03-18T17:43:30.554Z,2.33
2023-03-18T17:46:00.585Z,3.00
2023-03-18T17:48:30.362Z,2.17
2023-03-18T17:51:01.354Z,2.33
2023-03-18T17:53:33.352Z,3.07
2023-03-18T17:56:03.183Z,4.33
2023-03-18T17:58:33.019Z,3.60
2023-03-18T18:01:13.052Z,3.80
2023-03-18T18:03:41.701Z,4.63
2023-03-18T18:06:16.997Z,5.40
2023-03-18T18:08:44.798Z,4.00
2023-03-18T18:11:20.115Z,4.00
2023-03-18T18:13:48.717Z,4.50
2023-03-18T18:16:16.694Z,4.00
2023-03-18T18:18:44.364Z,4.07
2023-03-18T18:21:17.144Z,4.80
2023-03-18T18:23:45.888Z,5.90
2023-03-18T18:26:15.904Z,5.13
2023-03-18T18:28:45.432Z,4.60
2023-03-18T18:31:16.035Z,4.53
2023-03-18T18:33:45.011Z,4.20
2023-03-18T18:36:18.293Z,4.20
2023-03-18T18:38:46.300Z,5.07
2023-03-18T18:41:14.336Z,4.10
2023-03-18T18:43:42.063Z,3.37
2023-03-18T18:46:14.873Z,4.30
2023-03-18T18:48:50.133Z,3.70
2023-03-18T18:51:21.442Z,3.67
2023-03-18T18:53:50.393Z,3.07
2023-03-18T18:56:23.481Z,3.10
2023-03-18T18:58:53.157Z,3.70
2023-03-18T19:01:21.210Z,3.90
2023-03-18T19:03:49.880Z,3.50
2023-03-18T19:06:26.274Z,3.47
2023-03-18T19:08:55.809Z,3.43
2023-03-18T19:11:24.670Z,3.47
2023-03-18T19:13:53.216Z,2.97
2023-03-18T19:16:28.773Z,3.23
2023-03-18T19:18:56.863Z,3.30
2023-03-18T19:21:27.183Z,3.17
2023-03-18T19:23:55.190Z,3.20
2023-03-18T19:26:23.226Z,2.80
2023-03-18T19:29:01.368Z,3.10
2023-03-18T19:31:35.018Z,3.30
2023-03-18T19:34:03.610Z,2.77
2023-03-18T19:36:34.053Z,3.10
2023-03-18T19:39:03.694Z,4.27
2023-03-18T19:41:31.526Z,3.90
2023-03-18T19:44:04.071Z,3.40
2023-03-18T19:46:37.112Z,4.13
2023-03-18T19:49:10.460Z,4.17
2023-03-18T19:51:39.590Z,4.33
2023-03-18T19:54:28.334Z,6.00
2023-03-18T19:57:00.295Z,5.23
2023-03-18T19:59:37.451Z,3.37
2023-03-18T20:02:18.608Z,3.67
2023-03-18T20:04:47.829Z,4.30
2023-03-18T20:07:17.463Z,4.37
2023-03-18T20:09:45.511Z,3.90
2023-03-18T20:12:22.331Z,3.97
2023-03-18T20:14:50.630Z,4.43
2023-03-18T20:17:36.039Z,4.30
2023-03-18T20:20:04.200Z,4.10
2023-03-18T20:22:35.713Z,5.70
2023-03-18T20:25:05.014Z,4.90
2023-03-18T20:27:32.814Z,4.70
2023-03-18T20:30:01.176Z,3.63
2023-03-18T20:32:29.011Z,4.47
2023-03-18T20:34:56.822Z,4.30
2023-03-18T20:37:31.004Z,3.60
2023-03-18T20:40:00.275Z,3.80
2023-03-18T20:42:28.370Z,4.57
2023-03-18T20:44:56.358Z,5.43
2023-03-18T20:47:24.250Z,4.90
2023-03-18T20:49:53.750Z,3.93
2023-03-18T20:52:26.688Z,4.63
2023-03-18T20:54:54.522Z,4.60
2023-03-18T20:57:24.048Z,4.30
2023-03-18T20:59:52.556Z,4.30
2023-03-18T21:02:32.003Z,4.73
2023-03-18T21:05:02.292Z,4.43
2023-03-18T21:07:31.017Z,4.40
2023-03-18T21:09:59.127Z,3.50
2023-03-18T21:12:28.654Z,4.23
2023-03-18T21:14:56.924Z,4.17
2023-03-18T21:17:27.251Z,3.20
2023-03-18T21:20:05.018Z,5.07
2023-03-18T21:22:39.245Z,5.10
2023-03-18T21:25:09.065Z,6.70
2023-03-18T21:27:38.415Z,6.83
2023-03-18T21:30:09.633Z,5.77
2023-03-18T21:32:38.777Z,5.30
2023-03-18T21:35:07.796Z,5.50
2023-03-18T21:37:38.890Z,5.43
2023-03-18T21:40:07.757Z,4.47
2023-03-18T21:42:36.589Z,4.20
2023-03-18T21:45:12.589Z,4.73
2023-03-18T21:47:40.621Z,4.87
2023-03-18T21:50:10.172Z,5.80
2023-03-18T21:52:38.417Z,5.40
2023-03-18T21:55:08.107Z,5.00
2023-03-18T21:57:37.155Z,5.47
2023-03-18T22:00:07.976Z,5.07
2023-03-18T22:02:40.326Z,5.53
2023-03-18T22:05:15.145Z,5.17
2023-03-18T22:07:43.869Z,4.20
2023-03-18T22:10:18.061Z,4.90
2023-03-18T22:12:47.282Z,5.60
2023-03-18T22:15:37.498Z,6.27
2023-03-18T22:18:06.146Z,5.87
2023-03-18T22:20:35.846Z,6.00
2023-03-18T22:23:13.830Z,5.13
2023-03-18T22:25:42.552Z,6.07
2023-03-18T22:28:12.793Z,5.80
2023-03-18T22:30:44.157Z,5.40
2023-03-18T22:33:19.850Z,6.13
2023-03-18T22:35:48.186Z,6.10
2023-03-18T22:38:17.192Z,6.60
2023-03-18T22:40:46.440Z,7.63
2023-03-18T22:43:33.457Z,6.90
2023-03-18T22:46:05.243Z,5.47
2023-03-18T22:48:33.541Z,5.90
2023-03-18T22:51:02.399Z,6.20
2023-03-18T22:53:34.544Z,6.43
2023-03-18T22:56:08.727Z,6.83
2023-03-18T22:58:36.598Z,6.80
2023-03-18T23:01:15.585Z,5.37
2023-03-18T23:03:44.917Z,3.57
2023-03-18T23:06:15.812Z,6.13
2023-03-18T23:08:43.785Z,6.00
2023-03-18T23:11:11.554Z,5.50
2023-03-18T23:13:41.834Z,5.50
2023-03-18T23:16:15.188Z,6.23
2023-03-18T23:18:43.222Z,5.40
2023-03-18T23:21:15.983Z,5.07
2023-03-18T23:23:43.692Z,5.80
2023-03-18T23:26:11.474Z,5.53
2023-03-18T23:28:44.591Z,4.87
2023-03-18T23:31:14.812Z,4.20
2023-03-18T23:33:42.694Z,5.50
2023-03-18T23:36:11.779Z,5.87
2023-03-18T23:38:39.576Z,5.87
2023-03-18T23:41:08.126Z,6.00
2023-03-18T23:43:36.073Z,5.23
2023-03-18T23:46:03.940Z,3.77
2023-03-18T23:48:33.139Z,4.70
2023-03-18T23:51:01.237Z,5.80
2023-03-18T23:53:29.000Z,5.10
2023-03-18T23:55:56.756Z,5.77
2023-03-18T23:58:24.562Z,5.17
